createdAt,value
2022-11-27T00:07:24.214Z,3.8
2022-11-27T00:37:20.897Z,3.7
2022-11-27T01:07:21.046Z,2.8
2022-11-27T01:37:19.578Z,2.7
2022-11-27T02:07:19.599Z,2.7
2022-11-27T02:37:20.997Z,2.3
2022-11-27T03:37:24.150Z,2.4
2022-11-27T04:07:22.004Z,1.8
2022-11-27T04:37:18.228Z,1.8
2022-11-27T05:07:18.116Z,2.1
2022-11-27T05:37:19.797Z,2
2022-11-27T06:07:19.551Z,1.7
2022-11-27T06:37:17.078Z,2.2
2022-11-27T07:07:17.378Z,1.8
2022-11-27T07:37:17.169Z,1.7
2022-11-27T08:07:17.054Z,1.8
2022-11-27T08:37:17.147Z,1.8
2022-11-27T09:07:19.649Z,2
2022-11-27T09:37:16.567Z,2.1
2022-11-27T10:07:19.358Z,2.1
2022-11-27T10:37:19.469Z,2.7
2022-11-27T11:07:27.934Z,2.6
2022-11-27T11:37:22.389Z,3
2022-11-27T12:07:20.695Z,3.1
2022-11-27T12:37:26.057Z,2.9
2022-11-27T13:07:19.779Z,3.1
2022-11-27T13:37:30.938Z,3.7
2022-11-27T14:07:17.879Z,3.3
2022-11-27T14:37:29.189Z,3.4
2022-11-27T15:07:21.315Z,3.3
2022-11-27T15:37:24.113Z,3.6
2022-11-27T16:07:22.402Z,4.1
2022-11-27T16:37:18.568Z,4.2
2022-11-27T17:07:16.526Z,4.6
2022-11-27T17:37:16.220Z,5.2
2022-11-27T18:07:17.062Z,5.4
2022-11-27T18:37:16.371Z,4.9
2022-11-27T19:07:16.008Z,5.5
2022-11-27T19:37:24.678Z,4.8
2022-11-27T20:07:15.840Z,5.3
2022-11-27T20:37:15.543Z,5.4
2022-11-27T21:07:15.286Z,5
2022-11-27T21:37:14.883Z,5.3
2022-11-27T22:07:21.152Z,5.6
2022-11-27T22:37:21.387Z,5.4
2022-11-27T23:07:25.335Z,5.4
2022-11-27T23:37:22.953Z,5.6
